^^
Meteo Knjazevac Station Historical Data
Daily Summary for January 21, 2021 Units:  Metric    English   Both
Daily Weekly Monthly Yearly Custom
  High: Low: Average:
Temperature: 9.8 °C 1.9 °C 5.6 °C
Dew Point: 4.6 °C 0.4 °C 2.4 °C
Humidity: 91% 68% 81%
Wind Speed: 11.3km/h 0km/h 4.2km/h
Wind Gust: 24.1km/h - -
Wind- - SSE
Pressure: 1024.9 hPa 1021.6 hPa -
Precipitation: 0 mm    
Historical Graphs
 
 
Tabular Data for January 21, 2021
Time Temperature Dew Point Pressure Wind Wind Speed Wind Gust Humidity Rainfall Rate (Hourly) solar Conditions
00:00 2.8 °C 1.3 °C 1024.9 hPa Calm   8 km/h 90% 0 mm 0 W/m2
00:10 2.6 °C 1.2 °C 1024.6 hPa NNW 1.6 km/h 4.8 km/h 90% 0 mm 0 W/m2
00:20 2.8 °C 1.3 °C 1024.6 hPa South 1.6 km/h 6.4 km/h 90% 0 mm 0 W/m2
00:30 2.7 °C 1.2 °C 1024.6 hPa SW 1.6 km/h 4.8 km/h 90% 0 mm 0 W/m2
00:40 2.7 °C 1.2 °C 1024.6 hPa ENE 4.8 km/h 9.7 km/h 90% 0 mm 0 W/m2
00:50 2.9 °C 1.4 °C 1024.6 hPa ESE 4.8 km/h 9.7 km/h 90% 0 mm 0 W/m2
01:00 2.5 °C 1 °C 1024.3 hPa NNE 4.8 km/h 12.9 km/h 90% 0 mm 0 W/m2
01:10 2.7 °C 1.2 °C 1024.3 hPa East 1.6 km/h 12.9 km/h 90% 0 mm 0 W/m2
01:20 2.6 °C 1.1 °C 1024.3 hPa ENE 1.6 km/h 8 km/h 90% 0 mm 0 W/m2
01:30 2.5 °C 1 °C 1024.3 hPa SE 1.6 km/h 6.4 km/h 90% 0 mm 0 W/m2
01:40 2.5 °C 1 °C 1024.3 hPa SSW 1.6 km/h 11.3 km/h 90% 0 mm 0 W/m2
01:50 2.4 °C 0.9 °C 1024.3 hPa SW 1.6 km/h 11.3 km/h 90% 0 mm 0 W/m2
02:00 2.4 °C 0.9 °C 1024.3 hPa ESE 1.6 km/h 11.3 km/h 90% 0 mm 0 W/m2
02:10 2.4 °C 0.9 °C 1024.3 hPa NNE 1.6 km/h 6.4 km/h 90% 0 mm 0 W/m2
02:20 2.4 °C 0.9 °C 1024.3 hPa West 1.6 km/h 4.8 km/h 90% 0 mm 0 W/m2
02:30 2.3 °C 0.8 °C 1024.3 hPa Calm   4.8 km/h 90% 0 mm 0 W/m2
02:40 2.3 °C 1 °C 1023.9 hPa SE 1.6 km/h 9.7 km/h 91% 0 mm 0 W/m2
02:50 2.3 °C 0.8 °C 1023.9 hPa SE 1.6 km/h 8 km/h 90% 0 mm 0 W/m2
03:00 2.1 °C 0.6 °C 1023.9 hPa NNE 4.8 km/h 9.7 km/h 90% 0 mm 0 W/m2
03:10 1.9 °C 0.4 °C 1023.6 hPa North 3.2 km/h 6.4 km/h 90% 0 mm 0 W/m2
03:20 1.9 °C 0.6 °C 1023.9 hPa North 1.6 km/h 6.4 km/h 91% 0 mm 0 W/m2
03:30 2.1 °C 0.8 °C 1023.6 hPa NE 4.8 km/h 9.7 km/h 91% 0 mm 0 W/m2
03:40 2.2 °C 0.9 °C 1023.6 hPa East 4.8 km/h 11.3 km/h 91% 0 mm 0 W/m2
03:50 2.2 °C 0.7 °C 1023.6 hPa SE 1.6 km/h 12.9 km/h 90% 0 mm 0 W/m2
04:00 2.3 °C 0.8 °C 1023.6 hPa Calm   16.1 km/h 90% 0 mm 0 W/m2
04:10 2.3 °C 1 °C 1023.6 hPa SSE 1.6 km/h 11.3 km/h 91% 0 mm 0 W/m2
04:20 2.2 °C 0.9 °C 1023.6 hPa Calm   8 km/h 91% 0 mm 0 W/m2
04:30 2.5 °C 1.2 °C 1023.6 hPa SE 4.8 km/h 24.1 km/h 91% 0 mm 0 W/m2
04:40 2.6 °C 1.1 °C 1023.6 hPa SSE 8 km/h 19.3 km/h 90% 0 mm 0 W/m2
04:50 2.7 °C 1.2 °C 1023.6 hPa SE 1.6 km/h 14.5 km/h 90% 0 mm 0 W/m2
05:00 2.7 °C 1.2 °C 1023.6 hPa SSE 8 km/h 19.3 km/h 90% 0 mm 0 W/m2
05:10 3 °C 1.4 °C 1023.6 hPa SE 3.2 km/h 14.5 km/h 89% 0 mm 0 W/m2
05:20 2.8 °C 1.2 °C 1023.6 hPa SSE 3.2 km/h 11.3 km/h 89% 0 mm 0 W/m2
05:30 2.5 °C 1 °C 1023.6 hPa SSE 1.6 km/h 12.9 km/h 90% 0 mm 0 W/m2
05:40 2.9 °C 1.4 °C 1023.6 hPa SE 11.3 km/h 19.3 km/h 90% 0 mm 0 W/m2
05:50 3.1 °C 1.4 °C 1023.6 hPa SSE 1.6 km/h 19.3 km/h 89% 0 mm 0 W/m2
06:00 3 °C 1.4 °C 1023.9 hPa SW 3.2 km/h 9.7 km/h 89% 0 mm 0 W/m2
06:10 2.9 °C 1.3 °C 1023.9 hPa SW 1.6 km/h 8 km/h 89% 0 mm 0 W/m2
06:20 3 °C 1.4 °C 1023.9 hPa SSW 3.2 km/h 11.3 km/h 89% 0 mm 0 W/m2
06:30 3.2 °C 1.4 °C 1023.9 hPa South 4.8 km/h 11.3 km/h 88% 0 mm 0 W/m2
06:40 3.2 °C 1.4 °C 1023.9 hPa South 1.6 km/h 11.3 km/h 88% 0 mm 0 W/m2
06:50 3 °C 1.2 °C 1023.9 hPa SSE 4.8 km/h 9.7 km/h 88% 0 mm 0 W/m2
07:00 3.1 °C 1.3 °C 1023.9 hPa South 4.8 km/h 12.9 km/h 88% 0 mm 2 W/m2
07:10 3.3 °C 1.5 °C 1023.9 hPa SSE 3.2 km/h 12.9 km/h 88% 0 mm 3 W/m2
07:20 3.4 °C 1.6 °C 1023.9 hPa South 3.2 km/h 9.7 km/h 88% 0 mm 13 W/m2
07:30 3 °C 1.2 °C 1023.9 hPa SSW 4.8 km/h 11.3 km/h 88% 0 mm 23 W/m2
07:40 2.9 °C 1.1 °C 1023.9 hPa SW 1.6 km/h 9.7 km/h 88% 0 mm 35 W/m2
07:50 2.8 °C 1.2 °C 1023.9 hPa SW 1.6 km/h 8 km/h 89% 0 mm 47 W/m2
08:00 2.9 °C 1.3 °C 1023.9 hPa South 4.8 km/h 12.9 km/h 89% 0 mm 59 W/m2
08:10 3.2 °C 1.4 °C 1023.9 hPa South 4.8 km/h 12.9 km/h 88% 0 mm 71 W/m2
08:20 3.4 °C 1.6 °C 1023.9 hPa South 4.8 km/h 12.9 km/h 88% 0 mm 85 W/m2
08:30 3.7 °C 1.6 °C 1023.9 hPa SSE 4.8 km/h 11.3 km/h 86% 0 mm 100 W/m2
08:40 3.9 °C 1.8 °C 1023.9 hPa SSE 3.2 km/h 11.3 km/h 86% 0 mm 117 W/m2
08:50 4.1 °C 1.8 °C 1023.9 hPa SSE 8 km/h 16.1 km/h 85% 0 mm 136 W/m2
09:00 4.3 °C 2 °C 1023.9 hPa SSW 4.8 km/h 11.3 km/h 85% 0 mm 149 W/m2
09:10 4.5 °C 2.1 °C 1023.9 hPa SW 3.2 km/h 11.3 km/h 84% 0 mm 163 W/m2
09:20 4.7 °C 2.2 °C 1023.9 hPa WSW 3.2 km/h 9.7 km/h 84% 0 mm 181 W/m2
09:30 5 °C 2.4 °C 1023.9 hPa WSW 3.2 km/h 11.3 km/h 83% 0 mm 201 W/m2
09:40 5.3 °C 2.3 °C 1023.9 hPa SW 4.8 km/h 12.9 km/h 81% 0 mm 217 W/m2
09:50 5.7 °C 2.5 °C 1023.9 hPa SSW 4.8 km/h 12.9 km/h 80% 0 mm 233 W/m2
10:00 6 °C 2.8 °C 1024.3 hPa Calm   9.7 km/h 80% 0 mm 238 W/m2
10:10 6.3 °C 2.9 °C 1023.9 hPa SSW 1.6 km/h 8 km/h 79% 0 mm 251 W/m2
10:20 6.5 °C 2.9 °C 1023.9 hPa SSE 4.8 km/h 17.7 km/h 78% 0 mm 252 W/m2
10:30 6.7 °C 3.1 °C 1023.6 hPa SSE 8 km/h 20.9 km/h 78% 0 mm 245 W/m2
10:40 6.8 °C 3.1 °C 1023.6 hPa SE 8 km/h 19.3 km/h 77% 0 mm 248 W/m2
10:50 7.1 °C 3.3 °C 1023.6 hPa SE 8 km/h 19.3 km/h 77% 0 mm 250 W/m2
11:00 7.3 °C 3.6 °C 1023.6 hPa SSE 3.2 km/h 14.5 km/h 77% 0 mm 270 W/m2
11:10 7.6 °C 3.4 °C 1023.2 hPa SE 8 km/h 22.5 km/h 75% 0 mm 308 W/m2
11:20 7.8 °C 3.4 °C 1023.2 hPa SSE 8 km/h 20.9 km/h 74% 0 mm 308 W/m2
11:30 7.9 °C 3.6 °C 1023.2 hPa SE 9.7 km/h 17.7 km/h 74% 0 mm 287 W/m2
11:40 8.1 °C 3.7 °C 1022.9 hPa SE 8 km/h 17.7 km/h 74% 0 mm 301 W/m2
11:50 8.3 °C 3.9 °C 1022.9 hPa SE 9.7 km/h 19.3 km/h 74% 0 mm 292 W/m2
12:00 8.4 °C 3.8 °C 1022.9 hPa SE 4.8 km/h 22.5 km/h 73% 0 mm 288 W/m2
12:10 8.5 °C 3.9 °C 1022.9 hPa SE 11.3 km/h 20.9 km/h 73% 0 mm 322 W/m2
12:20 8.6 °C 4.1 °C 1022.6 hPa SE 8 km/h 19.3 km/h 73% 0 mm 309 W/m2
12:30 8.6 °C 3.8 °C 1022.6 hPa SE 8 km/h 19.3 km/h 72% 0 mm 289 W/m2
12:40 8.7 °C 4.1 °C 1022.2 hPa SSE 3.2 km/h 19.3 km/h 73% 0 mm 301 W/m2
12:50 8.9 °C 4.2 °C 1022.2 hPa SE 4.8 km/h 14.5 km/h 72% 0 mm 294 W/m2
13:00 9.2 °C 4.4 °C 1022.2 hPa SSE 4.8 km/h 12.9 km/h 72% 0 mm 317 W/m2
13:10 9.3 °C 4.5 °C 1022.2 hPa SSE 8 km/h 19.3 km/h 72% 0 mm 299 W/m2
13:20 9.3 °C 4.1 °C 1022.2 hPa SSE 3.2 km/h 16.1 km/h 70% 0 mm 248 W/m2
13:30 9.4 °C 4.2 °C 1021.9 hPa South 3.2 km/h 9.7 km/h 70% 0 mm 227 W/m2
13:40 9.4 °C 4.6 °C 1021.9 hPa SW 3.2 km/h 8 km/h 72% 0 mm 236 W/m2
13:50 9.6 °C 4.4 °C 1021.9 hPa SSW 3.2 km/h 14.5 km/h 70% 0 mm 252 W/m2
14:00 9.6 °C 4.4 °C 1021.9 hPa SSE 8 km/h 17.7 km/h 70% 0 mm 250 W/m2
14:10 9.6 °C 4.2 °C 1021.9 hPa SSE 9.7 km/h 19.3 km/h 69% 0 mm 223 W/m2
14:20 9.7 °C 4.3 °C 1021.9 hPa SSE 8 km/h 19.3 km/h 69% 0 mm 201 W/m2
14:30 9.7 °C 4.3 °C 1021.9 hPa SE 9.7 km/h 19.3 km/h 69% 0 mm 192 W/m2
14:40 9.8 °C 4.4 °C 1021.6 hPa SE 4.8 km/h 19.3 km/h 69% 0 mm 171 W/m2
14:50 9.8 °C 4.4 °C 1021.6 hPa SE 9.7 km/h 20.9 km/h 69% 0 mm 151 W/m2
15:00 9.8 °C 4.2 °C 1021.6 hPa SE 9.7 km/h 19.3 km/h 68% 0 mm 130 W/m2
15:10 9.7 °C 4.1 °C 1021.6 hPa SE 9.7 km/h 22.5 km/h 68% 0 mm 109 W/m2
15:20 9.6 °C 4.2 °C 1021.6 hPa SE 9.7 km/h 19.3 km/h 69% 0 mm 88 W/m2
15:30 9.6 °C 4.2 °C 1021.6 hPa SSE 3.2 km/h 14.5 km/h 69% 0 mm 68 W/m2
15:40 9.5 °C 4.1 °C 1021.6 hPa SW 3.2 km/h 9.7 km/h 69% 0 mm 49 W/m2
15:50 9.4 °C 4 °C 1021.9 hPa SSW 3.2 km/h 9.7 km/h 69% 0 mm 31 W/m2
16:00 9.3 °C 4.1 °C 1021.9 hPa SW 1.6 km/h 9.7 km/h 70% 0 mm 14 W/m2
16:10 9.1 °C 3.9 °C 1021.9 hPa SSW 3.2 km/h 9.7 km/h 70% 0 mm 16 W/m2
16:20 8.8 °C 3.6 °C 1021.9 hPa Calm   6.4 km/h 70% 0 mm 8 W/m2
16:30 8.5 °C 3.7 °C 1021.9 hPa SW 1.6 km/h 4.8 km/h 72% 0 mm 0 W/m2
16:40 8.2 °C 3.4 °C 1022.2 hPa SW 3.2 km/h 9.7 km/h 72% 0 mm 0 W/m2
16:50 8 °C 3.4 °C 1022.2 hPa SSW 4.8 km/h 11.3 km/h 73% 0 mm 0 W/m2
17:00 8.1 °C 3.3 °C 1022.2 hPa South 3.2 km/h 24.1 km/h 72% 0 mm 0 W/m2
17:10 7.9 °C 3.3 °C 1022.2 hPa SE 4.8 km/h 19.3 km/h 73% 0 mm 0 W/m2
17:20 7.8 °C 3.3 °C 1022.2 hPa South 3.2 km/h 9.7 km/h 73% 0 mm 0 W/m2
17:30 7.3 °C 2.9 °C 1022.2 hPa SSW 1.6 km/h 8 km/h 74% 0 mm 0 W/m2
17:40 7 °C 2.9 °C 1022.2 hPa SSE 8 km/h 14.5 km/h 75% 0 mm 0 W/m2
17:50 7.1 °C 2.9 °C 1022.2 hPa SSE 4.8 km/h 16.1 km/h 75% 0 mm 0 W/m2
18:00 7.1 °C 2.9 °C 1022.2 hPa SSE 4.8 km/h 11.3 km/h 75% 0 mm 0 W/m2
18:10 6.9 °C 2.8 °C 1022.2 hPa South 1.6 km/h 12.9 km/h 75% 0 mm 0 W/m2
18:20 6.6 °C 2.8 °C 1022.2 hPa SSW 3.2 km/h 9.7 km/h 77% 0 mm 0 W/m2
18:30 6.4 °C 2.8 °C 1022.2 hPa South 3.2 km/h 8 km/h 78% 0 mm 0 W/m2
18:40 6.4 °C 2.8 °C 1022.2 hPa South 3.2 km/h 11.3 km/h 78% 0 mm 0 W/m2
18:50 6.3 °C 2.7 °C 1022.2 hPa SSE 4.8 km/h 12.9 km/h 78% 0 mm 0 W/m2
19:00 6.5 °C 3.1 °C 1022.2 hPa SSE 1.6 km/h 12.9 km/h 79% 0 mm 0 W/m2
19:10 6.6 °C 3.1 °C 1022.2 hPa SSE 8 km/h 11.3 km/h 78% 0 mm 0 W/m2
19:20 6.5 °C 2.9 °C 1022.2 hPa South 4.8 km/h 11.3 km/h 78% 0 mm 0 W/m2
19:30 6.4 °C 3 °C 1022.2 hPa South 3.2 km/h 11.3 km/h 79% 0 mm 0 W/m2
19:40 6.3 °C 2.9 °C 1022.2 hPa SSE 8 km/h 11.3 km/h 79% 0 mm 0 W/m2
19:50 6.2 °C 2.8 °C 1022.2 hPa SSW 1.6 km/h 9.7 km/h 79% 0 mm 0 W/m2
20:00 6.4 °C 3.1 °C 1022.2 hPa SE 8 km/h 14.5 km/h 79% 0 mm 0 W/m2
20:10 6.5 °C 3.1 °C 1022.2 hPa SE 4.8 km/h 12.9 km/h 79% 0 mm 0 W/m2
20:20 6.2 °C 2.8 °C 1022.2 hPa SE 1.6 km/h 16.1 km/h 79% 0 mm 0 W/m2
20:30 5.9 °C 2.7 °C 1022.2 hPa SSE 1.6 km/h 8 km/h 80% 0 mm 0 W/m2
20:40 5.7 °C 2.7 °C 1022.2 hPa ESE 4.8 km/h 9.7 km/h 81% 0 mm 0 W/m2
20:50 5.6 °C 2.6 °C 1022.2 hPa SSE 3.2 km/h 19.3 km/h 81% 0 mm 0 W/m2
21:00 5.9 °C 2.9 °C 1022.2 hPa SE 9.7 km/h 14.5 km/h 81% 0 mm 0 W/m2
21:10 6.1 °C 2.9 °C 1022.2 hPa SE 4.8 km/h 17.7 km/h 80% 0 mm 0 W/m2
21:20 6.1 °C 2.9 °C 1022.2 hPa SE 3.2 km/h 12.9 km/h 80% 0 mm 0 W/m2
21:30 6.2 °C 3 °C 1022.2 hPa SE 8 km/h 12.9 km/h 80% 0 mm 0 W/m2
21:40 6.2 °C 3 °C 1022.2 hPa SE 4.8 km/h 12.9 km/h 80% 0 mm 0 W/m2
21:50 6.1 °C 2.9 °C 1022.2 hPa SSE 4.8 km/h 11.3 km/h 80% 0 mm 0 W/m2
22:00 6 °C 2.8 °C 1022.2 hPa SSE 3.2 km/h 11.3 km/h 80% 0 mm 0 W/m2
22:10 6 °C 2.8 °C 1022.2 hPa SSE 3.2 km/h 12.9 km/h 80% 0 mm 0 W/m2
22:20 6 °C 2.8 °C 1022.2 hPa SSE 4.8 km/h 12.9 km/h 80% 0 mm 0 W/m2
22:30 5.9 °C 2.7 °C 1022.2 hPa SSE 1.6 km/h 9.7 km/h 80% 0 mm 0 W/m2
22:40 5.8 °C 2.8 °C 1022.2 hPa South 4.8 km/h 11.3 km/h 81% 0 mm 0 W/m2
22:50 5.6 °C 2.6 °C 1022.2 hPa South 1.6 km/h 12.9 km/h 81% 0 mm 0 W/m2
23:00 5.1 °C 2.3 °C 1022.2 hPa SSW 1.6 km/h 9.7 km/h 82% 0 mm 0 W/m2
23:10 4.9 °C 2.3 °C 1022.2 hPa South 3.2 km/h 11.3 km/h 83% 0 mm 0 W/m2
23:20 4.5 °C 2.1 °C 1022.2 hPa South 1.6 km/h 8 km/h 84% 0 mm 0 W/m2
23:30 4.1 °C 1.6 °C 1022.2 hPa WSW 3.2 km/h 8 km/h 84% 0 mm 0 W/m2
23:40 3.9 °C 1.7 °C 1021.9 hPa SW 4.8 km/h 11.3 km/h 86% 0 mm 0 W/m2
23:50 3.8 °C 1.7 °C 1021.9 hPa South 3.2 km/h 8 km/h 86% 0 mm 0 W/m2
Knjazevac, Serbia
Compliments of Weather Underground - 2 mb